Chatfield, TX (75105)

2:52 AM CST on February 24, 2017 (GMT -0600)
Lively/Styx | | Change Station

Elev 410 ft 32.38 °N, 96.31 °W | Updated 6 seconds ago

Clear
Clear
62.4 °F
Feels Like 62.4 °F
N
1.7
Wind Variable Wind from SSE

Today
High -- | Low -- °F
--% Chance of Precip.
Yesterday
High -- | Low -- °F
Precip. -- in
Pressure 29.65 in
Visibility 10.0 miles
Clouds Scattered Clouds 1600 ft
Dew Point 58 °F
Humidity 85%
Rainfall 0.00 in
Snow Depth Not available.
6:58 AM 6:19 PM
Waning Crescent, 6% visible
SPECI KCRS 240816Z AUTO 19012G20KT 10SM SCT016 18/16 A2965 RMK AO2 T01780156
Pressure 29.65 in
Visibility 10.0 miles
Clouds Scattered Clouds 1600 ft
Dew Point 58 °F
Humidity 85%
Rainfall 0.00 in
Snow Depth Not available.
6:58 AM 6:19 PM
Waning Crescent, 6% visible
SPECI KCRS 240816Z AUTO 19012G20KT 10SM SCT016 18/16 A2965 RMK AO2 T01780156

Get Your Daily Forecast Email!

Thanks for signing up!

Be on the lookout for a verification email in your inbox.

You'll start receiving the daily forecast at 8 AM.

×

10-Day Weather Forecast

Almanac

Astronomy

Feb. 24, 2017 Rise Set
Actual Time
Civil Twilight
Nautical Twilight
Astronomical Twilight
Moon
Length of Visible Light
Length of Day
Tomorrow will be .
, % of the Moon is Illuminated

Today's Extremes

State Highs State Lows

Community

WunderPhotos

Upload Photos

1,962,540 photos uploaded!

WunderBlog® & News

Nearby

Air Quality

  Air Quality AQ Index Pollutant
Not available.

Snow Depth

Station Depth Elevation

Earthquake Activity

City Distance Mag. Time & Date
Minimum magnitude displayed is 2.5.

Coastal Water Temperatures

Place Temperature

Stations

Nearby Weather Stations

Station Location Temp. Windchill Dew Point Humidity Wind Precip. Elev Updated Type
                   

Watches & Warnings

There are currently no watches in effect.